sensor_id;sensor_type;location;lat;lon;timestamp;temperature;humidity
69359;HTU21D;56520;49.066;8.660;2024-03-06T00:01:10;4.92;93.59
69359;HTU21D;56520;49.066;8.660;2024-03-06T00:03:36;4.93;93.59
69359;HTU21D;56520;49.066;8.660;2024-03-06T00:06:01;4.95;93.59
69359;HTU21D;56520;49.066;8.660;2024-03-06T00:08:26;4.95;93.63
69359;HTU21D;56520;49.066;8.660;2024-03-06T00:10:53;4.96;93.64
69359;HTU21D;56520;49.066;8.660;2024-03-06T00:13:18;4.95;93.69
69359;HTU21D;56520;49.066;8.660;2024-03-06T00:15:44;4.95;93.67
69359;HTU21D;56520;49.066;8.660;2024-03-06T00:18:10;4.95;93.72
69359;HTU21D;56520;49.066;8.660;2024-03-06T00:20:35;4.94;93.73
69359;HTU21D;56520;49.066;8.660;2024-03-06T00:23:01;4.95;93.75
69359;HTU21D;56520;49.066;8.660;2024-03-06T00:25:26;4.93;93.72
69359;HTU21D;56520;49.066;8.660;2024-03-06T00:27:52;4.92;93.72
69359;HTU21D;56520;49.066;8.660;2024-03-06T00:30:17;4.91;93.74
69359;HTU21D;56520;49.066;8.660;2024-03-06T00:32:43;4.90;93.75
69359;HTU21D;56520;49.066;8.660;2024-03-06T00:35:08;4.89;93.80
69359;HTU21D;56520;49.066;8.660;2024-03-06T00:37:34;4.86;93.89
69359;HTU21D;56520;49.066;8.660;2024-03-06T00:39:59;4.86;94.00
69359;HTU21D;56520;49.066;8.660;2024-03-06T00:42:24;4.87;94.09
69359;HTU21D;56520;49.066;8.660;2024-03-06T00:44:50;4.87;94.11
69359;HTU21D;56520;49.066;8.660;2024-03-06T00:47:16;4.87;94.13
69359;HTU21D;56520;49.066;8.660;2024-03-06T00:49:41;4.88;94.13
69359;HTU21D;56520;49.066;8.660;2024-03-06T00:52:07;4.89;94.15
69359;HTU21D;56520;49.066;8.660;2024-03-06T00:54:32;4.93;94.14
69359;HTU21D;56520;49.066;8.660;2024-03-06T00:56:58;4.94;94.09
69359;HTU21D;56520;49.066;8.660;2024-03-06T00:59:24;4.93;94.05
69359;HTU21D;56520;49.066;8.660;2024-03-06T01:01:50;4.96;94.03
69359;HTU21D;56520;49.066;8.660;2024-03-06T01:04:15;4.96;94.06
69359;HTU21D;56520;49.066;8.660;2024-03-06T01:06:41;4.96;94.06
69359;HTU21D;56520;49.066;8.660;2024-03-06T01:09:06;4.98;94.06
69359;HTU21D;56520;49.066;8.660;2024-03-06T01:11:32;5.01;94.06
69359;HTU21D;56520;49.066;8.660;2024-03-06T01:13:57;5.01;94.07
69359;HTU21D;56520;49.066;8.660;2024-03-06T01:16:23;5.01;94.08
69359;HTU21D;56520;49.066;8.660;2024-03-06T01:18:48;5.01;94.09
69359;HTU21D;56520;49.066;8.660;2024-03-06T01:21:14;5.03;94.07
69359;HTU21D;56520;49.066;8.660;2024-03-06T01:23:40;5.04;94.04
69359;HTU21D;56520;49.066;8.660;2024-03-06T01:26:05;5.06;94.07
69359;HTU21D;56520;49.066;8.660;2024-03-06T01:28:31;5.07;94.07
69359;HTU21D;56520;49.066;8.660;2024-03-06T01:30:56;5.09;94.03
69359;HTU21D;56520;49.066;8.660;2024-03-06T01:33:23;5.10;94.02
69359;HTU21D;56520;49.066;8.660;2024-03-06T01:35:49;5.10;94.07
69359;HTU21D;56520;49.066;8.660;2024-03-06T01:38:14;5.12;94.36
69359;HTU21D;56520;49.066;8.660;2024-03-06T01:40:44;5.13;94.19
69359;HTU21D;56520;49.066;8.660;2024-03-06T01:43:20;5.12;94.12
69359;HTU21D;56520;49.066;8.660;2024-03-06T01:45:47;5.13;94.09
69359;HTU21D;56520;49.066;8.660;2024-03-06T01:48:13;5.15;94.06
69359;HTU21D;56520;49.066;8.660;2024-03-06T01:50:40;5.17;94.03
69359;HTU21D;56520;49.066;8.660;2024-03-06T01:53:06;5.19;93.99
69359;HTU21D;56520;49.066;8.660;2024-03-06T01:55:31;5.20;94.01
69359;HTU21D;56520;49.066;8.660;2024-03-06T01:57:57;5.19;93.99
69359;HTU21D;56520;49.066;8.660;2024-03-06T02:00:22;5.21;94.04
69359;HTU21D;56520;49.066;8.660;2024-03-06T02:02:48;5.23;94.28
69359;HTU21D;56520;49.066;8.660;2024-03-06T02:05:13;5.22;94.09
69359;HTU21D;56520;49.066;8.660;2024-03-06T02:07:39;5.21;94.02
69359;HTU21D;56520;49.066;8.660;2024-03-06T02:10:07;5.21;93.97
69359;HTU21D;56520;49.066;8.660;2024-03-06T02:12:33;5.20;93.95
69359;HTU21D;56520;49.066;8.660;2024-03-06T02:14:59;5.21;93.92
69359;HTU21D;56520;49.066;8.660;2024-03-06T02:17:25;5.21;93.89
69359;HTU21D;56520;49.066;8.660;2024-03-06T02:19:51;5.21;93.88
69359;HTU21D;56520;49.066;8.660;2024-03-06T02:22:16;5.22;93.86
69359;HTU21D;56520;49.066;8.660;2024-03-06T02:24:45;5.22;93.88
69359;HTU21D;56520;49.066;8.660;2024-03-06T02:27:11;5.23;93.89
69359;HTU21D;56520;49.066;8.660;2024-03-06T02:29:36;5.24;93.92
69359;HTU21D;56520;49.066;8.660;2024-03-06T02:32:04;5.24;93.91
69359;HTU21D;56520;49.066;8.660;2024-03-06T02:34:30;5.24;93.91
69359;HTU21D;56520;49.066;8.660;2024-03-06T02:36:55;5.24;93.93
69359;HTU21D;56520;49.066;8.660;2024-03-06T02:39:21;5.23;93.95
69359;HTU21D;56520;49.066;8.660;2024-03-06T02:41:47;5.23;93.96
69359;HTU21D;56520;49.066;8.660;2024-03-06T02:44:12;5.23;93.97
69359;HTU21D;56520;49.066;8.660;2024-03-06T02:46:38;5.23;93.98
69359;HTU21D;56520;49.066;8.660;2024-03-06T02:49:04;5.22;93.96
69359;HTU21D;56520;49.066;8.660;2024-03-06T02:51:31;5.23;93.97
69359;HTU21D;56520;49.066;8.660;2024-03-06T02:53:56;5.22;93.96
69359;HTU21D;56520;49.066;8.660;2024-03-06T02:56:22;5.22;93.99
69359;HTU21D;56520;49.066;8.660;2024-03-06T02:58:47;5.20;94.03
69359;HTU21D;56520;49.066;8.660;2024-03-06T03:01:14;5.22;94.04
69359;HTU21D;56520;49.066;8.660;2024-03-06T03:03:42;5.22;94.03
69359;HTU21D;56520;49.066;8.660;2024-03-06T03:06:09;5.21;94.01
69359;HTU21D;56520;49.066;8.660;2024-03-06T03:08:37;5.21;94.07
69359;HTU21D;56520;49.066;8.660;2024-03-06T03:11:02;5.19;94.13
69359;HTU21D;56520;49.066;8.660;2024-03-06T03:13:28;5.19;94.14
69359;HTU21D;56520;49.066;8.660;2024-03-06T03:15:53;5.18;94.17
69359;HTU21D;56520;49.066;8.660;2024-03-06T03:18:19;5.16;94.20
69359;HTU21D;56520;49.066;8.660;2024-03-06T03:20:44;5.19;94.37
69359;HTU21D;56520;49.066;8.660;2024-03-06T03:23:09;5.24;94.45
69359;HTU21D;56520;49.066;8.660;2024-03-06T03:25:37;5.26;94.46
69359;HTU21D;56520;49.066;8.660;2024-03-06T03:28:03;5.26;94.38
69359;HTU21D;56520;49.066;8.660;2024-03-06T03:30:29;5.26;94.35
69359;HTU21D;56520;49.066;8.660;2024-03-06T03:32:54;5.26;94.32
69359;HTU21D;56520;49.066;8.660;2024-03-06T03:35:20;5.27;94.36
69359;HTU21D;56520;49.066;8.660;2024-03-06T03:37:52;5.27;94.32
69359;HTU21D;56520;49.066;8.660;2024-03-06T03:40:18;5.27;94.30
69359;HTU21D;56520;49.066;8.660;2024-03-06T03:42:44;5.28;94.25
69359;HTU21D;56520;49.066;8.660;2024-03-06T03:45:09;5.26;94.23
69359;HTU21D;56520;49.066;8.660;2024-03-06T03:47:35;5.26;94.33
69359;HTU21D;56520;49.066;8.660;2024-03-06T03:50:00;5.26;94.32
69359;HTU21D;56520;49.066;8.660;2024-03-06T03:52:26;5.25;94.30
69359;HTU21D;56520;49.066;8.660;2024-03-06T03:54:51;5.26;94.30
69359;HTU21D;56520;49.066;8.660;2024-03-06T03:57:16;5.25;94.30
69359;HTU21D;56520;49.066;8.660;2024-03-06T03:59:42;5.26;94.31
69359;HTU21D;56520;49.066;8.660;2024-03-06T04:02:08;5.26;94.33
69359;HTU21D;56520;49.066;8.660;2024-03-06T04:04:33;5.25;94.33
69359;HTU21D;56520;49.066;8.660;2024-03-06T04:07:00;5.24;94.36
69359;HTU21D;56520;49.066;8.660;2024-03-06T04:09:27;5.25;94.39
69359;HTU21D;56520;49.066;8.660;2024-03-06T04:11:53;5.25;94.41
69359;HTU21D;56520;49.066;8.660;2024-03-06T04:14:18;5.26;94.43
69359;HTU21D;56520;49.066;8.660;2024-03-06T04:16:45;5.25;94.40
69359;HTU21D;56520;49.066;8.660;2024-03-06T04:19:11;5.25;94.43
69359;HTU21D;56520;49.066;8.660;2024-03-06T04:21:41;5.28;94.43
69359;HTU21D;56520;49.066;8.660;2024-03-06T04:24:07;5.26;94.40
69359;HTU21D;56520;49.066;8.660;2024-03-06T04:26:32;5.25;94.40
69359;HTU21D;56520;49.066;8.660;2024-03-06T04:28:58;5.25;94.49
69359;HTU21D;56520;49.066;8.660;2024-03-06T04:31:23;5.27;94.51
69359;HTU21D;56520;49.066;8.660;2024-03-06T04:33:49;5.30;94.49
69359;HTU21D;56520;49.066;8.660;2024-03-06T04:36:14;5.32;94.52
69359;HTU21D;56520;49.066;8.660;2024-03-06T04:38:39;5.36;94.49
69359;HTU21D;56520;49.066;8.660;2024-03-06T04:41:05;5.39;94.37
69359;HTU21D;56520;49.066;8.660;2024-03-06T04:43:31;5.42;94.20
69359;HTU21D;56520;49.066;8.660;2024-03-06T04:45:57;5.42;94.16
69359;HTU21D;56520;49.066;8.660;2024-03-06T04:48:22;5.39;94.15
69359;HTU21D;56520;49.066;8.660;2024-03-06T04:50:48;5.41;94.14
69359;HTU21D;56520;49.066;8.660;2024-03-06T04:53:14;5.38;94.14
69359;HTU21D;56520;49.066;8.660;2024-03-06T04:55:39;5.37;94.17
69359;HTU21D;56520;49.066;8.660;2024-03-06T04:58:05;5.40;94.07
69359;HTU21D;56520;49.066;8.660;2024-03-06T05:00:30;5.41;94.01
69359;HTU21D;56520;49.066;8.660;2024-03-06T05:02:56;5.43;93.92
69359;HTU21D;56520;49.066;8.660;2024-03-06T05:05:22;5.43;93.87
69359;HTU21D;56520;49.066;8.660;2024-03-06T05:07:48;5.43;93.90
69359;HTU21D;56520;49.066;8.660;2024-03-06T05:10:13;5.43;93.87
69359;HTU21D;56520;49.066;8.660;2024-03-06T05:12:40;5.43;93.88
69359;HTU21D;56520;49.066;8.660;2024-03-06T05:15:05;5.45;93.82
69359;HTU21D;56520;49.066;8.660;2024-03-06T05:17:31;5.43;93.82
69359;HTU21D;56520;49.066;8.660;2024-03-06T05:19:57;5.46;93.79
69359;HTU21D;56520;49.066;8.660;2024-03-06T05:22:22;5.46;93.78
69359;HTU21D;56520;49.066;8.660;2024-03-06T05:24:48;5.45;93.80
69359;HTU21D;56520;49.066;8.660;2024-03-06T05:27:13;5.46;93.82
69359;HTU21D;56520;49.066;8.660;2024-03-06T05:29:42;5.49;93.77
69359;HTU21D;56520;49.066;8.660;2024-03-06T05:32:08;5.53;93.68
69359;HTU21D;56520;49.066;8.660;2024-03-06T05:34:33;5.52;93.64
69359;HTU21D;56520;49.066;8.660;2024-03-06T05:37:00;5.52;93.68
69359;HTU21D;56520;49.066;8.660;2024-03-06T05:39:26;5.53;93.60
69359;HTU21D;56520;49.066;8.660;2024-03-06T05:41:54;5.59;93.52
69359;HTU21D;56520;49.066;8.660;2024-03-06T05:44:20;5.59;93.52
69359;HTU21D;56520;49.066;8.660;2024-03-06T05:46:46;5.59;93.58
69359;HTU21D;56520;49.066;8.660;2024-03-06T05:49:12;5.56;93.67
69359;HTU21D;56520;49.066;8.660;2024-03-06T05:51:38;5.55;93.70
69359;HTU21D;56520;49.066;8.660;2024-03-06T05:54:03;5.54;93.76
69359;HTU21D;56520;49.066;8.660;2024-03-06T05:56:30;5.53;93.85
69359;HTU21D;56520;49.066;8.660;2024-03-06T05:58:56;5.52;93.95
69359;HTU21D;56520;49.066;8.660;2024-03-06T06:01:21;5.53;94.03
69359;HTU21D;56520;49.066;8.660;2024-03-06T06:03:50;5.53;94.07
69359;HTU21D;56520;49.066;8.660;2024-03-06T06:06:16;5.55;94.11
69359;HTU21D;56520;49.066;8.660;2024-03-06T06:08:42;5.56;94.17
69359;HTU21D;56520;49.066;8.660;2024-03-06T06:11:09;5.55;94.20
69359;HTU21D;56520;49.066;8.660;2024-03-06T06:13:35;5.55;94.35
69359;HTU21D;56520;49.066;8.660;2024-03-06T06:16:00;5.56;94.34
69359;HTU21D;56520;49.066;8.660;2024-03-06T06:18:28;5.60;94.43
69359;HTU21D;56520;49.066;8.660;2024-03-06T06:20:54;5.61;94.40
69359;HTU21D;56520;49.066;8.660;2024-03-06T06:23:19;5.63;94.49
69359;HTU21D;56520;49.066;8.660;2024-03-06T06:25:45;5.64;94.52
69359;HTU21D;56520;49.066;8.660;2024-03-06T06:28:11;5.68;94.56
69359;HTU21D;56520;49.066;8.660;2024-03-06T06:30:36;5.72;94.59
69359;HTU21D;56520;49.066;8.660;2024-03-06T06:33:03;5.77;94.57
69359;HTU21D;56520;49.066;8.660;2024-03-06T06:35:29;5.80;94.54
69359;HTU21D;56520;49.066;8.660;2024-03-06T06:37:55;5.84;94.50
69359;HTU21D;56520;49.066;8.660;2024-03-06T06:40:20;5.87;94.46
69359;HTU21D;56520;49.066;8.660;2024-03-06T06:42:48;5.91;94.38
69359;HTU21D;56520;49.066;8.660;2024-03-06T06:45:17;5.94;94.32
69359;HTU21D;56520;49.066;8.660;2024-03-06T06:47:43;5.97;94.24
69359;HTU21D;56520;49.066;8.660;2024-03-06T06:50:09;5.99;94.20
69359;HTU21D;56520;49.066;8.660;2024-03-06T06:52:35;6.00;94.14
69359;HTU21D;56520;49.066;8.660;2024-03-06T06:55:01;6.04;94.14
69359;HTU21D;56520;49.066;8.660;2024-03-06T06:57:27;6.07;94.11
69359;HTU21D;56520;49.066;8.660;2024-03-06T06:59:52;6.11;94.08
69359;HTU21D;56520;49.066;8.660;2024-03-06T07:02:18;6.14;94.01
69359;HTU21D;56520;49.066;8.660;2024-03-06T07:04:43;6.19;93.99
69359;HTU21D;56520;49.066;8.660;2024-03-06T07:07:09;6.23;93.93
69359;HTU21D;56520;49.066;8.660;2024-03-06T07:09:34;6.29;93.79
69359;HTU21D;56520;49.066;8.660;2024-03-06T07:12:00;6.35;93.71
69359;HTU21D;56520;49.066;8.660;2024-03-06T07:14:25;6.41;93.60
69359;HTU21D;56520;49.066;8.660;2024-03-06T07:16:51;6.48;93.48
69359;HTU21D;56520;49.066;8.660;2024-03-06T07:19:16;6.51;93.17
69359;HTU21D;56520;49.066;8.660;2024-03-06T07:21:42;6.54;93.13
69359;HTU21D;56520;49.066;8.660;2024-03-06T07:24:07;6.58;92.80
69359;HTU21D;56520;49.066;8.660;2024-03-06T07:26:33;6.55;92.72
69359;HTU21D;56520;49.066;8.660;2024-03-06T07:28:59;6.54;92.78
69359;HTU21D;56520;49.066;8.660;2024-03-06T07:31:28;6.57;92.80
69359;HTU21D;56520;49.066;8.660;2024-03-06T07:33:53;6.57;92.77
69359;HTU21D;56520;49.066;8.660;2024-03-06T07:36:19;6.56;92.65
69359;HTU21D;56520;49.066;8.660;2024-03-06T07:38:44;6.53;92.61
69359;HTU21D;56520;49.066;8.660;2024-03-06T07:41:10;6.50;92.76
69359;HTU21D;56520;49.066;8.660;2024-03-06T07:43:37;6.49;92.91
69359;HTU21D;56520;49.066;8.660;2024-03-06T07:46:03;6.46;93.04
69359;HTU21D;56520;49.066;8.660;2024-03-06T07:48:36;6.49;93.22
69359;HTU21D;56520;49.066;8.660;2024-03-06T07:51:01;6.54;93.33
69359;HTU21D;56520;49.066;8.660;2024-03-06T07:53:28;6.56;93.31
69359;HTU21D;56520;49.066;8.660;2024-03-06T07:55:53;6.60;93.37
69359;HTU21D;56520;49.066;8.660;2024-03-06T07:58:18;6.69;93.27
69359;HTU21D;56520;49.066;8.660;2024-03-06T08:00:46;6.75;93.19
69359;HTU21D;56520;49.066;8.660;2024-03-06T08:03:12;6.85;93.02
69359;HTU21D;56520;49.066;8.660;2024-03-06T08:05:39;6.95;92.83
69359;HTU21D;56520;49.066;8.660;2024-03-06T08:08:04;7.02;92.70
69359;HTU21D;56520;49.066;8.660;2024-03-06T08:10:30;7.10;92.61
69359;HTU21D;56520;49.066;8.660;2024-03-06T08:12:56;7.22;92.24
69359;HTU21D;56520;49.066;8.660;2024-03-06T08:15:22;7.24;92.13
69359;HTU21D;56520;49.066;8.660;2024-03-06T08:17:49;7.29;92.10
69359;HTU21D;56520;49.066;8.660;2024-03-06T08:20:14;7.31;92.02
69359;HTU21D;56520;49.066;8.660;2024-03-06T08:22:41;7.37;91.88
69359;HTU21D;56520;49.066;8.660;2024-03-06T08:25:11;7.39;91.72
69359;HTU21D;56520;49.066;8.660;2024-03-06T08:27:40;7.40;91.53
69359;HTU21D;56520;49.066;8.660;2024-03-06T08:30:06;7.40;91.31
69359;HTU21D;56520;49.066;8.660;2024-03-06T08:32:36;7.40;91.08
69359;HTU21D;56520;49.066;8.660;2024-03-06T08:35:08;7.43;91.04
69359;HTU21D;56520;49.066;8.660;2024-03-06T08:37:37;7.47;90.81
69359;HTU21D;56520;49.066;8.660;2024-03-06T08:40:03;7.52;90.86
69359;HTU21D;56520;49.066;8.660;2024-03-06T08:42:29;7.61;90.67
69359;HTU21D;56520;49.066;8.660;2024-03-06T08:44:54;7.70;90.65
69359;HTU21D;56520;49.066;8.660;2024-03-06T08:47:20;7.79;90.52
69359;HTU21D;56520;49.066;8.660;2024-03-06T08:49:45;7.89;90.34
69359;HTU21D;56520;49.066;8.660;2024-03-06T08:52:11;7.99;90.15
69359;HTU21D;56520;49.066;8.660;2024-03-06T08:54:37;8.03;89.69
69359;HTU21D;56520;49.066;8.660;2024-03-06T08:57:03;8.04;89.35
69359;HTU21D;56520;49.066;8.660;2024-03-06T08:59:29;8.07;89.19
69359;HTU21D;56520;49.066;8.660;2024-03-06T09:01:55;8.09;89.19
69359;HTU21D;56520;49.066;8.660;2024-03-06T09:04:25;8.15;88.81
69359;HTU21D;56520;49.066;8.660;2024-03-06T09:06:50;8.15;88.31
69359;HTU21D;56520;49.066;8.660;2024-03-06T09:09:16;8.13;88.30
69359;HTU21D;56520;49.066;8.660;2024-03-06T09:11:42;8.13;88.56
69359;HTU21D;56520;49.066;8.660;2024-03-06T09:14:08;8.20;88.42
69359;HTU21D;56520;49.066;8.660;2024-03-06T09:16:37;8.23;88.52
69359;HTU21D;56520;49.066;8.660;2024-03-06T09:19:02;8.35;88.65
69359;HTU21D;56520;49.066;8.660;2024-03-06T09:21:28;8.52;88.44
69359;HTU21D;56520;49.066;8.660;2024-03-06T09:23:53;8.61;88.16
69359;HTU21D;56520;49.066;8.660;2024-03-06T09:26:19;8.70;87.82
69359;HTU21D;56520;49.066;8.660;2024-03-06T09:28:45;8.81;87.75
69359;HTU21D;56520;49.066;8.660;2024-03-06T09:31:11;8.89;87.18
69359;HTU21D;56520;49.066;8.660;2024-03-06T09:33:39;8.90;86.79
69359;HTU21D;56520;49.066;8.660;2024-03-06T09:36:04;8.85;86.69
69359;HTU21D;56520;49.066;8.660;2024-03-06T09:38:31;8.82;86.79
69359;HTU21D;56520;49.066;8.660;2024-03-06T09:40:57;8.92;86.80
69359;HTU21D;56520;49.066;8.660;2024-03-06T09:43:23;8.98;86.51
69359;HTU21D;56520;49.066;8.660;2024-03-06T09:45:50;9.06;86.22
69359;HTU21D;56520;49.066;8.660;2024-03-06T09:48:18;9.12;86.11
69359;HTU21D;56520;49.066;8.660;2024-03-06T09:50:46;9.17;85.84
69359;HTU21D;56520;49.066;8.660;2024-03-06T09:53:15;9.09;85.27
69359;HTU21D;56520;49.066;8.660;2024-03-06T09:55:42;8.98;85.08
69359;HTU21D;56520;49.066;8.660;2024-03-06T09:58:08;8.94;85.16
69359;HTU21D;56520;49.066;8.660;2024-03-06T10:00:36;8.95;85.38
69359;HTU21D;56520;49.066;8.660;2024-03-06T10:03:03;8.93;85.16
69359;HTU21D;56520;49.066;8.660;2024-03-06T10:05:31;8.89;85.25
69359;HTU21D;56520;49.066;8.660;2024-03-06T10:07:58;8.92;85.26
69359;HTU21D;56520;49.066;8.660;2024-03-06T10:10:24;9.02;84.88
69359;HTU21D;56520;49.066;8.660;2024-03-06T10:12:50;9.01;84.82
69359;HTU21D;56520;49.066;8.660;2024-03-06T10:15:16;9.00;84.64
69359;HTU21D;56520;49.066;8.660;2024-03-06T10:17:41;8.95;84.30
69359;HTU21D;56520;49.066;8.660;2024-03-06T10:20:23;8.87;83.52
69359;HTU21D;56520;49.066;8.660;2024-03-06T10:22:53;8.79;83.58
69359;HTU21D;56520;49.066;8.660;2024-03-06T10:25:20;8.76;83.55
69359;HTU21D;56520;49.066;8.660;2024-03-06T10:28:05;8.76;83.82
69359;HTU21D;56520;49.066;8.660;2024-03-06T10:30:33;8.77;83.53
69359;HTU21D;56520;49.066;8.660;2024-03-06T10:33:01;8.68;83.46
69359;HTU21D;56520;49.066;8.660;2024-03-06T10:35:26;8.66;84.00
69359;HTU21D;56520;49.066;8.660;2024-03-06T10:37:54;8.64;84.36
69359;HTU21D;56520;49.066;8.660;2024-03-06T10:40:20;8.70;84.71
69359;HTU21D;56520;49.066;8.660;2024-03-06T10:42:46;8.81;84.86
69359;HTU21D;56520;49.066;8.660;2024-03-06T10:45:15;8.89;84.84
69359;HTU21D;56520;49.066;8.660;2024-03-06T10:47:46;8.90;84.85
69359;HTU21D;56520;49.066;8.660;2024-03-06T10:50:15;8.88;84.86
69359;HTU21D;56520;49.066;8.660;2024-03-06T10:52:41;8.88;84.61
69359;HTU21D;56520;49.066;8.660;2024-03-06T10:55:11;8.77;84.12
69359;HTU21D;56520;49.066;8.660;2024-03-06T10:57:36;8.64;84.57
69359;HTU21D;56520;49.066;8.660;2024-03-06T11:00:03;8.58;84.96
69359;HTU21D;56520;49.066;8.660;2024-03-06T11:02:29;8.59;85.08
69359;HTU21D;56520;49.066;8.660;2024-03-06T11:04:55;8.55;85.03
69359;HTU21D;56520;49.066;8.660;2024-03-06T11:07:20;8.58;85.32
69359;HTU21D;56520;49.066;8.660;2024-03-06T11:09:46;8.66;85.13
69359;HTU21D;56520;49.066;8.660;2024-03-06T11:12:32;8.65;85.16
69359;HTU21D;56520;49.066;8.660;2024-03-06T11:14:57;8.63;85.31
69359;HTU21D;56520;49.066;8.660;2024-03-06T11:17:25;8.66;85.48
69359;HTU21D;56520;49.066;8.660;2024-03-06T11:28:17;8.92;84.55
69359;HTU21D;56520;49.066;8.660;2024-03-06T11:30:46;9.14;84.02
69359;HTU21D;56520;49.066;8.660;2024-03-06T11:33:14;9.27;83.68
69359;HTU21D;56520;49.066;8.660;2024-03-06T11:35:43;9.31;83.68
69359;HTU21D;56520;49.066;8.660;2024-03-06T11:38:29;9.36;83.65
69359;HTU21D;56520;49.066;8.660;2024-03-06T11:40:54;9.37;82.57
69359;HTU21D;56520;49.066;8.660;2024-03-06T11:43:24;9.35;82.65
69359;HTU21D;56520;49.066;8.660;2024-03-06T11:45:50;9.35;82.17
69359;HTU21D;56520;49.066;8.660;2024-03-06T11:48:15;9.38;82.90
69359;HTU21D;56520;49.066;8.660;2024-03-06T11:50:47;9.55;82.42
69359;HTU21D;56520;49.066;8.660;2024-03-06T11:53:16;9.60;82.37
69359;HTU21D;56520;49.066;8.660;2024-03-06T11:55:42;9.63;82.31
69359;HTU21D;56520;49.066;8.660;2024-03-06T11:58:08;9.74;82.45
69359;HTU21D;56520;49.066;8.660;2024-03-06T12:00:36;9.81;82.07
69359;HTU21D;56520;49.066;8.660;2024-03-06T12:03:02;9.78;81.73
69359;HTU21D;56520;49.066;8.660;2024-03-06T12:05:29;9.85;81.52
69359;HTU21D;56520;49.066;8.660;2024-03-06T12:07:54;9.89;81.73
69359;HTU21D;56520;49.066;8.660;2024-03-06T12:10:21;9.86;81.60
69359;HTU21D;56520;49.066;8.660;2024-03-06T12:12:46;9.85;81.41
69359;HTU21D;56520;49.066;8.660;2024-03-06T12:15:15;9.86;81.57
69359;HTU21D;56520;49.066;8.660;2024-03-06T12:17:46;9.90;81.60
69359;HTU21D;56520;49.066;8.660;2024-03-06T12:20:13;9.94;81.36
69359;HTU21D;56520;49.066;8.660;2024-03-06T12:22:48;9.91;81.39
69359;HTU21D;56520;49.066;8.660;2024-03-06T12:25:24;9.85;81.45
69359;HTU21D;56520;49.066;8.660;2024-03-06T12:27:51;9.89;80.93
69359;HTU21D;56520;49.066;8.660;2024-03-06T12:30:21;9.94;81.42
69359;HTU21D;56520;49.066;8.660;2024-03-06T12:32:58;10.15;80.88
69359;HTU21D;56520;49.066;8.660;2024-03-06T12:35:27;10.28;80.52
69359;HTU21D;56520;49.066;8.660;2024-03-06T12:37:52;10.46;80.09
69359;HTU21D;56520;49.066;8.660;2024-03-06T12:40:19;10.53;79.66
69359;HTU21D;56520;49.066;8.660;2024-03-06T12:42:44;10.54;79.94
69359;HTU21D;56520;49.066;8.660;2024-03-06T12:45:11;10.46;79.56
69359;HTU21D;56520;49.066;8.660;2024-03-06T12:47:43;10.24;80.30
69359;HTU21D;56520;49.066;8.660;2024-03-06T12:50:09;10.05;80.45
69359;HTU21D;56520;49.066;8.660;2024-03-06T12:52:36;9.85;80.77
69359;HTU21D;56520;49.066;8.660;2024-03-06T12:55:02;9.70;81.35
69359;HTU21D;56520;49.066;8.660;2024-03-06T12:57:27;9.61;81.94
69359;HTU21D;56520;49.066;8.660;2024-03-06T12:59:53;9.62;82.32
69359;HTU21D;56520;49.066;8.660;2024-03-06T13:02:18;9.60;82.52
69359;HTU21D;56520;49.066;8.660;2024-03-06T13:04:44;9.51;82.77
69359;HTU21D;56520;49.066;8.660;2024-03-06T13:07:09;9.47;83.05
69359;HTU21D;56520;49.066;8.660;2024-03-06T13:09:36;9.50;83.04
69359;HTU21D;56520;49.066;8.660;2024-03-06T13:12:01;9.49;83.03
69359;HTU21D;56520;49.066;8.660;2024-03-06T13:14:26;9.42;83.21
69359;HTU21D;56520;49.066;8.660;2024-03-06T13:16:52;9.40;83.42
69359;HTU21D;56520;49.066;8.660;2024-03-06T13:19:17;9.45;83.46
69359;HTU21D;56520;49.066;8.660;2024-03-06T13:21:42;9.49;83.42
69359;HTU21D;56520;49.066;8.660;2024-03-06T13:24:08;9.53;83.55
69359;HTU21D;56520;49.066;8.660;2024-03-06T13:26:33;9.64;83.50
69359;HTU21D;56520;49.066;8.660;2024-03-06T13:28:59;9.72;83.37
69359;HTU21D;56520;49.066;8.660;2024-03-06T13:31:24;9.77;83.21
69359;HTU21D;56520;49.066;8.660;2024-03-06T13:33:50;9.69;83.20
69359;HTU21D;56520;49.066;8.660;2024-03-06T13:36:15;9.55;83.49
69359;HTU21D;56520;49.066;8.660;2024-03-06T13:38:41;9.45;83.82
69359;HTU21D;56520;49.066;8.660;2024-03-06T13:41:06;9.34;84.11
69359;HTU21D;56520;49.066;8.660;2024-03-06T13:43:32;9.33;84.26
69359;HTU21D;56520;49.066;8.660;2024-03-06T13:45:58;9.29;84.34
69359;HTU21D;56520;49.066;8.660;2024-03-06T13:48:23;9.22;84.45
69359;HTU21D;56520;49.066;8.660;2024-03-06T13:50:49;9.12;84.59
69359;HTU21D;56520;49.066;8.660;2024-03-06T13:53:14;9.02;84.90
69359;HTU21D;56520;49.066;8.660;2024-03-06T13:55:40;8.95;85.20
69359;HTU21D;56520;49.066;8.660;2024-03-06T13:58:07;8.90;85.51
69359;HTU21D;56520;49.066;8.660;2024-03-06T14:00:32;8.83;85.85
69359;HTU21D;56520;49.066;8.660;2024-03-06T14:02:59;8.78;86.22
69359;HTU21D;56520;49.066;8.660;2024-03-06T14:05:25;8.73;86.56
69359;HTU21D;56520;49.066;8.660;2024-03-06T14:07:51;8.71;86.85
69359;HTU21D;56520;49.066;8.660;2024-03-06T14:10:17;8.68;87.25
69359;HTU21D;56520;49.066;8.660;2024-03-06T14:12:45;8.64;87.38
69359;HTU21D;56520;49.066;8.660;2024-03-06T14:15:11;8.60;87.39
69359;HTU21D;56520;49.066;8.660;2024-03-06T14:17:41;8.59;87.44
69359;HTU21D;56520;49.066;8.660;2024-03-06T14:20:07;8.65;87.60
69359;HTU21D;56520;49.066;8.660;2024-03-06T14:22:33;8.65;87.68
69359;HTU21D;56520;49.066;8.660;2024-03-06T14:24:58;8.63;87.61
69359;HTU21D;56520;49.066;8.660;2024-03-06T14:27:24;8.65;87.77
69359;HTU21D;56520;49.066;8.660;2024-03-06T14:29:49;8.62;87.75
69359;HTU21D;56520;49.066;8.660;2024-03-06T14:32:18;8.65;87.84
69359;HTU21D;56520;49.066;8.660;2024-03-06T14:34:44;8.71;87.91
69359;HTU21D;56520;49.066;8.660;2024-03-06T14:37:09;8.74;87.96
69359;HTU21D;56520;49.066;8.660;2024-03-06T14:39:35;8.73;87.96
69359;HTU21D;56520;49.066;8.660;2024-03-06T14:42:00;8.73;88.03
69359;HTU21D;56520;49.066;8.660;2024-03-06T14:44:26;8.71;88.01
69359;HTU21D;56520;49.066;8.660;2024-03-06T14:46:51;8.68;88.15
69359;HTU21D;56520;49.066;8.660;2024-03-06T14:49:17;8.64;88.46
69359;HTU21D;56520;49.066;8.660;2024-03-06T14:51:42;8.60;88.63
69359;HTU21D;56520;49.066;8.660;2024-03-06T14:54:08;8.59;88.99
69359;HTU21D;56520;49.066;8.660;2024-03-06T14:56:34;8.58;89.26
69359;HTU21D;56520;49.066;8.660;2024-03-06T14:58:59;8.55;89.27
69359;HTU21D;56520;49.066;8.660;2024-03-06T15:01:24;8.52;89.61
69359;HTU21D;56520;49.066;8.660;2024-03-06T15:03:51;8.50;89.67
69359;HTU21D;56520;49.066;8.660;2024-03-06T15:06:17;8.46;89.61
69359;HTU21D;56520;49.066;8.660;2024-03-06T15:08:42;8.43;89.71
69359;HTU21D;56520;49.066;8.660;2024-03-06T15:11:10;8.39;89.68
69359;HTU21D;56520;49.066;8.660;2024-03-06T15:13:35;8.37;89.76
69359;HTU21D;56520;49.066;8.660;2024-03-06T15:16:01;8.35;89.93
69359;HTU21D;56520;49.066;8.660;2024-03-06T15:18:26;8.32;90.11
69359;HTU21D;56520;49.066;8.660;2024-03-06T15:20:52;8.29;90.21
69359;HTU21D;56520;49.066;8.660;2024-03-06T15:23:18;8.24;90.24
69359;HTU21D;56520;49.066;8.660;2024-03-06T15:25:43;8.23;90.37
69359;HTU21D;56520;49.066;8.660;2024-03-06T15:28:12;8.19;90.38
69359;HTU21D;56520;49.066;8.660;2024-03-06T15:30:37;8.17;90.44
69359;HTU21D;56520;49.066;8.660;2024-03-06T15:33:04;8.14;90.55